Flight Track Log - Related Links

Times and Time Zones

All times are in EDT time to prevent confusion due to time zone crossing. See the LXJ549 flight status page for this flight to view local times or setup timezone preferences in your user account.

Time Position Orientation Groundspeed Altitude Reporting Facility
EDT Latitude Longitude Course Direction KTS MPH feet Rate Location/Type
Tue 01:25:38 PM 37.7333 -122.2667 332° Northwest 190 219 1,100  Level Northern Cal TRACON
Tue 01:26:38 PM 37.7833 -122.3000 332° Northwest 221 254 3,300 2,050 Climbing Northern Cal TRACON
Tue 01:27:38 PM 37.8333 -122.3000 360° North 257 296 5,200 2,236 Climbing Northern Cal TRACON
Tue 01:30:10 PM 37.8822 -122.0631 75° East 304 350 11,200 2,479 Climbing Oakland Center
Tue 01:31:11 PM 37.9089 -121.9164 77° East 347 399 14,000 2,537 Climbing Oakland Center
Tue 01:32:13 PM 37.9336 -121.7869 76° East 370 426 16,400 2,000 Climbing Oakland Center
Tue 01:33:14 PM 37.9586 -121.6519 77° East 388 447 18,100 1,951 Climbing Oakland Center
Tue 01:34:16 PM 37.9853 -121.5075 77° East 411 473 20,400 2,244 Climbing Oakland Center
Tue 01:35:17 PM 38.0108 -121.3661 77° East 418 481 22,700 1,854 Climbing Oakland Center
Tue 01:36:19 PM 38.0364 -121.2172 78° East 430 495 24,200 1,512 Climbing Oakland Center
Tue 01:37:20 PM 38.0642 -121.0608 77° East 450 518 25,800 2,000 Climbing Oakland Center
Tue 01:38:22 PM 38.0953 -120.8719 78° East 457 526 28,300 1,902 Climbing Oakland Center
Tue 01:39:23 PM 38.1211 -120.7131 78° East 461 531 29,700 1,426 Climbing Oakland Center
Tue 01:40:24 PM 38.1461 -120.5486 79° East 473 544 31,200 1,512 Climbing Oakland Center
Tue 01:41:26 PM 38.1725 -120.3822 79° East 481 554 32,800 1,452 Climbing Oakland Center
Tue 01:42:28 PM 38.1975 -120.2133 79° East 485 558 34,200 1,268 Climbing Oakland Center
Tue 01:43:29 PM 38.2233 -120.0444 79° East 488 562 35,400 1,073 Climbing Oakland Center
Tue 01:44:31 PM 38.2503 -119.8719 79° East 496 571 36,400 976 Climbing Oakland Center
Tue 01:45:32 PM 38.2756 -119.6986 79° East 499 574 37,400 1,073 Climbing Oakland Center
Tue 01:46:34 PM 38.3056 -119.4897 80° East 500 575 38,600 1,024 Climbing Oakland Center
Tue 01:47:35 PM 38.3294 -119.3286 79° East 497 572 39,500 780 Climbing Oakland Center
Tue 01:48:37 PM 38.3536 -119.1572 80° East 496 571 40,200 629 Climbing Oakland Center
Tue 01:49:39 PM 38.3778 -118.9814 80° East 502 578 40,800 390 Climbing Oakland Center
Tue 01:50:40 PM 38.4081 -118.7747 79° East 499 574 41,000 98 Climbing Oakland Center
Tue 01:51:42 PM 38.4306 -118.6078 80° East 486 559 41,000  Level Oakland Center
Tue 01:52:43 PM 38.4542 -118.4383 80° East 488 562 41,000  Level Oakland Center
Tue 01:53:45 PM 38.4775 -118.2656 80° East 496 571 41,000  Level Oakland Center
Tue 01:54:47 PM 38.5022 -118.0886 80° East 494 568 41,000  Level Oakland Center
Tue 01:55:48 PM 38.5250 -117.9175 80° East 488 562 41,000  Level Oakland Center
Tue 01:56:50 PM 38.5472 -117.7489 80° East 483 556 41,000  Level Oakland Center
Tue 01:57:51 PM 38.5686 -117.5794 81° East 481 554 41,000  Level Oakland Center
Tue 01:58:53 PM 38.5908 -117.4081 81° East 484 557 41,000  Level Oakland Center
Tue 01:59:25 PM 38.6031 -117.3053 81° East 485 558 41,000  Level Salt Lake Center
Tue 02:00:27 PM 38.6247 -117.1314 81° East 490 564 41,000  Level Salt Lake Center
Tue 02:01:29 PM 38.6458 -116.9575 81° East 491 565 41,000  Level Salt Lake Center
Tue 02:02:31 PM 38.6667 -116.7822 81° East 495 570 41,000  Level Salt Lake Center
Tue 02:03:33 PM 38.6883 -116.6078 81° East 495 570 41,000 532 Level Salt Lake Center
Tue 02:04:35 PM 38.7128 -116.4000 81° East 491 565 42,100 871 Climbing Salt Lake Center
Tue 02:05:37 PM 38.7325 -116.2294 82° East 486 559 42,800 435 Climbing Salt Lake Center
Tue 02:06:39 PM 38.7533 -116.0592 81° East 484 557 43,000 97 Climbing Salt Lake Center
Tue 02:07:41 PM 38.7725 -115.8853 82° East 492 566 43,000  Level Salt Lake Center
Tue 02:08:43 PM 38.7911 -115.7131 82° East 490 564 43,000  Level Salt Lake Center
Tue 02:09:45 PM 38.8111 -115.5400 82° East 490 564 43,000  Level Salt Lake Center
Tue 02:10:47 PM 38.8306 -115.3639 82° East 490 564 43,000  Level Salt Lake Center
Tue 02:11:49 PM 38.8533 -115.1550 82° East 493 567 43,000  Level Salt Lake Center
Tue 02:12:51 PM 38.8731 -114.9792 82° East 497 572 43,000  Level Salt Lake Center
Tue 02:13:53 PM 38.8917 -114.8050 82° East 493 567 43,000  Level Salt Lake Center
Tue 02:14:55 PM 38.9086 -114.6308 83° East 492 566 43,000  Level Salt Lake Center
Tue 02:15:57 PM 38.9269 -114.4583 82° East 490 564 43,000  Level Salt Lake Center
Tue 02:16:59 PM 38.9439 -114.2819 83° East 494 568 43,000  Level Salt Lake Center
Tue 02:18:01 PM 38.9619 -114.1089 82° East 492 566 43,000  Level Salt Lake Center
Tue 02:19:03 PM 38.9825 -113.8986 83° East 493 567 43,000  Level Salt Lake Center
Tue 02:20:05 PM 38.9983 -113.7239 83° East 492 566 43,000  Level Salt Lake Center
Tue 02:21:07 PM 39.0153 -113.5486 83° East 493 567 43,000  Level Salt Lake Center
Tue 02:22:09 PM 39.0303 -113.3744 84° East 491 565 43,000  Level Salt Lake Center
Tue 02:23:12 PM 39.0475 -113.1994 83° East 492 566 43,000  Level Salt Lake Center
Tue 02:24:14 PM 39.0619 -113.0233 84° East 493 567 43,000  Level Salt Lake Center
Tue 02:25:16 PM 39.0811 -112.8139 83° East 492 566 43,000  Level Salt Lake Center
Tue 02:26:18 PM 39.0961 -112.6372 84° East 495 570 43,000  Level Salt Lake Center
Tue 02:27:20 PM 39.1103 -112.4617 84° East 494 568 43,000  Level Salt Lake Center
Tue 02:28:22 PM 39.1247 -112.2875 84° East 491 565 43,000  Level Salt Lake Center
Tue 02:29:24 PM 39.1389 -112.1119 84° East 491 565 43,000  Level Salt Lake Center
Tue 02:30:26 PM 39.1528 -111.9364 84° East 492 566 43,000  Level Salt Lake Center
Tue 02:31:28 PM 39.1675 -111.7608 84° East 493 567 43,000  Level Salt Lake Center
Tue 02:32:30 PM 39.1831 -111.5525 84° East 489 563 43,000  Level Salt Lake Center
Tue 02:33:32 PM 39.1961 -111.3792 84° East 486 559 43,000  Level Salt Lake Center
Tue 02:34:34 PM 39.2081 -111.1950 85° East 488 562 43,000  Level Salt Lake Center
Tue 02:35:36 PM 39.2200 -111.0281 85° East 488 562 43,000  Level Salt Lake Center
Tue 02:36:38 PM 39.2342 -110.8333 85° East 489 563 43,000  Level Salt Lake Center
Tue 02:37:40 PM 39.2458 -110.6667 85° East 489 563 43,000  Level Salt Lake Center
Tue 02:38:42 PM 39.2586 -110.4736 85° East 485 558 43,000  Level Salt Lake Center
Tue 02:39:44 PM 39.2692 -110.3067 85° East 488 562 43,000  Level Salt Lake Center
Tue 02:40:46 PM 39.2822 -110.1119 85° East 489 563 43,000  Level Salt Lake Center
Tue 02:41:48 PM 39.2931 -109.9444 85° East 491 565 43,000 -387 Level Salt Lake Center
Tue 02:42:50 PM 39.3111 -109.7781 82° East 489 563 42,200 -1,210 Descending Salt Lake Center
Tue 02:43:52 PM 39.3436 -109.5811 78° East 501 577 40,500 -1,645 Descending Salt Lake Center
Tue 02:44:54 PM 39.3703 -109.4133 78° East 501 577 38,800 -2,035 Descending Salt Lake Center
Tue 02:45:47 PM 39.3961 -109.2411 79° East 504 580 36,600 -2,243 Descending Denver Center
Tue 02:46:49 PM 39.4228 -109.0697 79° East 509 586 34,500 -2,323 Descending Denver Center
Tue 02:47:51 PM 39.4536 -108.8689 79° East 514 592 31,800 -2,806 Descending Denver Center
Tue 02:48:53 PM 39.4797 -108.6961 79° East 519 597 28,700 -2,516 Descending Denver Center
Tue 02:49:55 PM 39.4917 -108.5047 85° East 483 556 26,600 -1,317 Descending Denver Center
Tue 02:50:56 PM 39.5019 -108.3378 85° East 489 563 26,000 -1,024 Descending Denver Center
Tue 02:51:58 PM 39.4983 -108.1531 91° East 455 524 24,500 -1,113 Descending Denver Center
Tue 02:53:00 PM 39.4917 -108.0119 93° East 412 474 23,700 -1,210 Descending Denver Center
Tue 02:54:02 PM 39.4844 -107.8592 93° East 382 440 22,000 -1,548 Descending Denver Center
Tue 02:55:04 PM 39.4786 -107.7353 93° East 367 422 20,500 -1,887 Descending Denver Center
Tue 02:56:06 PM 39.4714 -107.5933 94° East 356 410 18,100 -1,790 Descending Denver Center
Tue 02:57:08 PM 39.4672 -107.4697 92° East 359 413 16,800 -629 Descending Denver Center
Tue 02:58:10 PM 39.4611 -107.3364 93° East 335 386 16,800 -190 Level Denver Center
Tue 02:59:14 PM 39.4558 -107.2389 94° East 291 335 16,400 -429 Descending Denver Center
Tue 03:00:16 PM 39.5244 -107.1703 38° Northeast 281 323 15,900 -242 Descending Denver Center
Tue 03:01:18 PM 39.5700 -107.0967 51° Northeast 288 331 15,900 -49 Level Denver Center
Tue 03:02:19 PM 39.5344 -107.0103 118° Southeast 287 330 15,800 -98 Descending Denver Center
Tue 03:03:21 PM 39.4719 -106.9753 157° South 259 298 15,700 -1,403 Descending Denver Center
Tue 03:04:23 PM 39.4000 -106.9686 176° South 251 289 12,900 -2,661 Descending Denver Center
Tue 03:05:25 PM 39.3369 -106.9808 189° South 234 269 10,200 -1,935 Descending Denver Center
Tue 03:06:27 PM 39.2972 -106.9539 152° Southeast 215 247 8,900 -919 Descending Denver Center
Tue 03:07:29 PM 39.2822 -106.8858 106° East 195 224 8,300 -581 Descending Denver Center
Tue 03:09:00 PM 39.2167 -106.8667 176° South  Level FlightAware Approximate

Login

Don't have an account? Register now (free) for customized features, flight alerts, and more!